sensor_id;sensor_type;location;lat;lon;timestamp;P1;durP1;ratioP1;P2;durP2;ratioP2
7001;SDS011;3541;53.230;10.518;2022-12-17T00:01:47;62.43;;;33.63;;
7001;SDS011;3541;53.230;10.518;2022-12-17T00:04:32;57.73;;;32.67;;
7001;SDS011;3541;53.230;10.518;2022-12-17T00:07:16;56.60;;;33.03;;
7001;SDS011;3541;53.230;10.518;2022-12-17T00:10:02;70.87;;;35.70;;
7001;SDS011;3541;53.230;10.518;2022-12-17T00:12:47;55.17;;;29.20;;
7001;SDS011;3541;53.230;10.518;2022-12-17T00:15:31;53.37;;;30.17;;
7001;SDS011;3541;53.230;10.518;2022-12-17T00:18:15;53.80;;;29.63;;
7001;SDS011;3541;53.230;10.518;2022-12-17T00:20:58;53.93;;;29.90;;
7001;SDS011;3541;53.230;10.518;2022-12-17T00:23:43;52.67;;;30.93;;
7001;SDS011;3541;53.230;10.518;2022-12-17T00:26:28;49.90;;;29.53;;
7001;SDS011;3541;53.230;10.518;2022-12-17T00:29:12;52.30;;;30.47;;
7001;SDS011;3541;53.230;10.518;2022-12-17T00:31:57;48.83;;;28.40;;
7001;SDS011;3541;53.230;10.518;2022-12-17T00:34:42;51.17;;;29.93;;
7001;SDS011;3541;53.230;10.518;2022-12-17T00:37:28;47.67;;;27.50;;
7001;SDS011;3541;53.230;10.518;2022-12-17T00:40:12;46.67;;;27.00;;
7001;SDS011;3541;53.230;10.518;2022-12-17T00:43:00;46.30;;;28.37;;
7001;SDS011;3541;53.230;10.518;2022-12-17T00:45:45;48.77;;;26.30;;
7001;SDS011;3541;53.230;10.518;2022-12-17T00:48:29;44.23;;;26.30;;
7001;SDS011;3541;53.230;10.518;2022-12-17T00:51:14;47.77;;;27.33;;
7001;SDS011;3541;53.230;10.518;2022-12-17T00:53:59;48.53;;;26.23;;
7001;SDS011;3541;53.230;10.518;2022-12-17T00:56:43;46.03;;;26.70;;
7001;SDS011;3541;53.230;10.518;2022-12-17T00:59:27;48.47;;;26.40;;
7001;SDS011;3541;53.230;10.518;2022-12-17T01:02:12;44.90;;;25.37;;
7001;SDS011;3541;53.230;10.518;2022-12-17T01:04:56;43.70;;;24.80;;
7001;SDS011;3541;53.230;10.518;2022-12-17T01:07:40;42.40;;;26.13;;
7001;SDS011;3541;53.230;10.518;2022-12-17T01:10:25;41.17;;;26.43;;
7001;SDS011;3541;53.230;10.518;2022-12-17T01:13:11;43.90;;;25.30;;
7001;SDS011;3541;53.230;10.518;2022-12-17T01:16:00;49.57;;;25.50;;
7001;SDS011;3541;53.230;10.518;2022-12-17T01:18:45;42.00;;;26.17;;
7001;SDS011;3541;53.230;10.518;2022-12-17T01:21:29;43.87;;;25.20;;
7001;SDS011;3541;53.230;10.518;2022-12-17T01:24:13;43.43;;;25.13;;
7001;SDS011;3541;53.230;10.518;2022-12-17T01:26:58;42.53;;;24.70;;
7001;SDS011;3541;53.230;10.518;2022-12-17T01:29:39;42.73;;;25.50;;
7001;SDS011;3541;53.230;10.518;2022-12-17T01:32:23;44.50;;;24.43;;
7001;SDS011;3541;53.230;10.518;2022-12-17T01:35:07;41.43;;;25.50;;
7001;SDS011;3541;53.230;10.518;2022-12-17T01:37:51;41.87;;;25.33;;
7001;SDS011;3541;53.230;10.518;2022-12-17T01:40:35;43.33;;;25.10;;
7001;SDS011;3541;53.230;10.518;2022-12-17T01:43:31;41.43;;;25.20;;
7001;SDS011;3541;53.230;10.518;2022-12-17T01:46:16;39.93;;;23.30;;
7001;SDS011;3541;53.230;10.518;2022-12-17T01:49:01;40.87;;;25.23;;
7001;SDS011;3541;53.230;10.518;2022-12-17T01:51:45;38.80;;;24.33;;
7001;SDS011;3541;53.230;10.518;2022-12-17T01:54:30;48.13;;;26.30;;
7001;SDS011;3541;53.230;10.518;2022-12-17T01:57:20;43.70;;;24.77;;
7001;SDS011;3541;53.230;10.518;2022-12-17T02:00:07;41.50;;;24.87;;
7001;SDS011;3541;53.230;10.518;2022-12-17T02:02:52;42.57;;;25.80;;
7001;SDS011;3541;53.230;10.518;2022-12-17T02:05:38;47.80;;;25.83;;
7001;SDS011;3541;53.230;10.518;2022-12-17T02:08:28;42.83;;;25.40;;
7001;SDS011;3541;53.230;10.518;2022-12-17T02:11:23;42.07;;;25.30;;
7001;SDS011;3541;53.230;10.518;2022-12-17T02:14:25;41.27;;;24.77;;
7001;SDS011;3541;53.230;10.518;2022-12-17T02:17:16;45.90;;;25.20;;
7001;SDS011;3541;53.230;10.518;2022-12-17T02:20:07;41.23;;;23.83;;
7001;SDS011;3541;53.230;10.518;2022-12-17T02:23:03;41.60;;;24.27;;
7001;SDS011;3541;53.230;10.518;2022-12-17T02:25:55;41.43;;;24.27;;
7001;SDS011;3541;53.230;10.518;2022-12-17T02:28:45;41.70;;;24.80;;
7001;SDS011;3541;53.230;10.518;2022-12-17T02:31:35;45.93;;;24.40;;
7001;SDS011;3541;53.230;10.518;2022-12-17T02:34:22;44.50;;;24.53;;
7001;SDS011;3541;53.230;10.518;2022-12-17T02:37:06;39.63;;;24.27;;
7001;SDS011;3541;53.230;10.518;2022-12-17T02:39:50;44.87;;;25.60;;
7001;SDS011;3541;53.230;10.518;2022-12-17T02:42:34;44.17;;;23.83;;
7001;SDS011;3541;53.230;10.518;2022-12-17T02:45:20;40.53;;;24.27;;
7001;SDS011;3541;53.230;10.518;2022-12-17T02:48:05;43.80;;;25.07;;
7001;SDS011;3541;53.230;10.518;2022-12-17T02:50:51;42.00;;;24.23;;
7001;SDS011;3541;53.230;10.518;2022-12-17T02:53:40;37.37;;;23.20;;
7001;SDS011;3541;53.230;10.518;2022-12-17T02:56:24;40.07;;;23.67;;
7001;SDS011;3541;53.230;10.518;2022-12-17T02:59:09;38.13;;;22.90;;
7001;SDS011;3541;53.230;10.518;2022-12-17T03:01:53;41.50;;;23.30;;
7001;SDS011;3541;53.230;10.518;2022-12-17T03:04:38;37.47;;;23.70;;
7001;SDS011;3541;53.230;10.518;2022-12-17T03:07:22;42.90;;;24.80;;
7001;SDS011;3541;53.230;10.518;2022-12-17T03:10:02;41.33;;;24.87;;
7001;SDS011;3541;53.230;10.518;2022-12-17T03:12:47;43.10;;;24.97;;
7001;SDS011;3541;53.230;10.518;2022-12-17T03:15:31;39.50;;;23.33;;
7001;SDS011;3541;53.230;10.518;2022-12-17T03:18:16;41.53;;;24.03;;
7001;SDS011;3541;53.230;10.518;2022-12-17T03:21:00;44.67;;;25.20;;
7001;SDS011;3541;53.230;10.518;2022-12-17T03:23:44;40.27;;;23.50;;
7001;SDS011;3541;53.230;10.518;2022-12-17T03:26:29;39.93;;;23.53;;
7001;SDS011;3541;53.230;10.518;2022-12-17T03:29:14;51.53;;;25.20;;
7001;SDS011;3541;53.230;10.518;2022-12-17T03:31:57;41.27;;;23.50;;
7001;SDS011;3541;53.230;10.518;2022-12-17T03:34:43;41.10;;;24.20;;
7001;SDS011;3541;53.230;10.518;2022-12-17T03:37:27;37.37;;;21.67;;
7001;SDS011;3541;53.230;10.518;2022-12-17T03:40:11;39.77;;;23.47;;
7001;SDS011;3541;53.230;10.518;2022-12-17T03:42:55;41.33;;;23.30;;
7001;SDS011;3541;53.230;10.518;2022-12-17T03:45:39;41.13;;;23.63;;
7001;SDS011;3541;53.230;10.518;2022-12-17T03:48:35;41.73;;;23.40;;
7001;SDS011;3541;53.230;10.518;2022-12-17T03:51:23;43.93;;;24.23;;
7001;SDS011;3541;53.230;10.518;2022-12-17T03:54:07;44.23;;;24.63;;
7001;SDS011;3541;53.230;10.518;2022-12-17T03:56:51;43.70;;;23.77;;
7001;SDS011;3541;53.230;10.518;2022-12-17T03:59:35;42.33;;;24.27;;
7001;SDS011;3541;53.230;10.518;2022-12-17T04:02:19;44.40;;;23.43;;
7001;SDS011;3541;53.230;10.518;2022-12-17T04:05:15;41.37;;;23.57;;
7001;SDS011;3541;53.230;10.518;2022-12-17T04:08:00;46.00;;;24.27;;
7001;SDS011;3541;53.230;10.518;2022-12-17T04:10:45;40.83;;;22.23;;
7001;SDS011;3541;53.230;10.518;2022-12-17T04:13:29;38.50;;;22.67;;
7001;SDS011;3541;53.230;10.518;2022-12-17T04:16:13;38.67;;;22.70;;
7001;SDS011;3541;53.230;10.518;2022-12-17T04:18:57;47.07;;;24.57;;
7001;SDS011;3541;53.230;10.518;2022-12-17T04:21:52;41.17;;;23.73;;
7001;SDS011;3541;53.230;10.518;2022-12-17T04:24:38;40.50;;;23.83;;
7001;SDS011;3541;53.230;10.518;2022-12-17T04:27:22;41.87;;;23.13;;
7001;SDS011;3541;53.230;10.518;2022-12-17T04:30:06;43.40;;;23.00;;
7001;SDS011;3541;53.230;10.518;2022-12-17T04:32:52;38.00;;;22.83;;
7001;SDS011;3541;53.230;10.518;2022-12-17T04:35:36;42.57;;;24.10;;
7001;SDS011;3541;53.230;10.518;2022-12-17T04:38:20;42.20;;;23.13;;
7001;SDS011;3541;53.230;10.518;2022-12-17T04:41:05;36.53;;;23.10;;
7001;SDS011;3541;53.230;10.518;2022-12-17T04:43:49;39.00;;;22.53;;
7001;SDS011;3541;53.230;10.518;2022-12-17T04:46:33;40.67;;;23.17;;
7001;SDS011;3541;53.230;10.518;2022-12-17T04:49:18;38.60;;;23.73;;
7001;SDS011;3541;53.230;10.518;2022-12-17T04:52:03;37.63;;;22.37;;
7001;SDS011;3541;53.230;10.518;2022-12-17T04:54:47;40.60;;;24.77;;
7001;SDS011;3541;53.230;10.518;2022-12-17T04:57:32;38.13;;;22.77;;
7001;SDS011;3541;53.230;10.518;2022-12-17T05:00:16;35.47;;;21.97;;
7001;SDS011;3541;53.230;10.518;2022-12-17T05:03:04;39.67;;;24.03;;
7001;SDS011;3541;53.230;10.518;2022-12-17T05:05:49;39.33;;;23.77;;
7001;SDS011;3541;53.230;10.518;2022-12-17T05:08:33;36.60;;;22.23;;
7001;SDS011;3541;53.230;10.518;2022-12-17T05:11:17;40.60;;;23.97;;
7001;SDS011;3541;53.230;10.518;2022-12-17T05:14:02;37.60;;;22.10;;
7001;SDS011;3541;53.230;10.518;2022-12-17T05:16:47;41.10;;;23.23;;
7001;SDS011;3541;53.230;10.518;2022-12-17T05:19:31;39.20;;;22.33;;
7001;SDS011;3541;53.230;10.518;2022-12-17T05:22:15;39.57;;;22.23;;
7001;SDS011;3541;53.230;10.518;2022-12-17T05:24:59;43.13;;;22.30;;
7001;SDS011;3541;53.230;10.518;2022-12-17T05:27:44;34.63;;;21.03;;
7001;SDS011;3541;53.230;10.518;2022-12-17T05:30:41;39.27;;;23.27;;
7001;SDS011;3541;53.230;10.518;2022-12-17T05:33:25;44.13;;;22.43;;
7001;SDS011;3541;53.230;10.518;2022-12-17T05:36:13;41.17;;;22.17;;
7001;SDS011;3541;53.230;10.518;2022-12-17T05:38:57;35.50;;;22.50;;
7001;SDS011;3541;53.230;10.518;2022-12-17T05:41:41;38.53;;;22.30;;
7001;SDS011;3541;53.230;10.518;2022-12-17T05:44:27;37.77;;;22.40;;
7001;SDS011;3541;53.230;10.518;2022-12-17T05:47:13;40.43;;;22.83;;
7001;SDS011;3541;53.230;10.518;2022-12-17T05:49:57;40.40;;;23.17;;
7001;SDS011;3541;53.230;10.518;2022-12-17T05:52:41;40.23;;;22.17;;
7001;SDS011;3541;53.230;10.518;2022-12-17T05:55:25;40.97;;;22.93;;
7001;SDS011;3541;53.230;10.518;2022-12-17T05:58:20;38.80;;;22.53;;
7001;SDS011;3541;53.230;10.518;2022-12-17T06:01:10;40.17;;;22.20;;
7001;SDS011;3541;53.230;10.518;2022-12-17T06:03:56;37.90;;;22.23;;
7001;SDS011;3541;53.230;10.518;2022-12-17T06:06:40;40.70;;;23.30;;
7001;SDS011;3541;53.230;10.518;2022-12-17T06:09:24;35.87;;;22.03;;
7001;SDS011;3541;53.230;10.518;2022-12-17T06:12:08;39.53;;;21.73;;
7001;SDS011;3541;53.230;10.518;2022-12-17T06:14:52;32.60;;;20.47;;
7001;SDS011;3541;53.230;10.518;2022-12-17T06:17:36;60.23;;;34.20;;
7001;SDS011;3541;53.230;10.518;2022-12-17T06:20:21;48.63;;;27.93;;
7001;SDS011;3541;53.230;10.518;2022-12-17T06:23:07;42.60;;;28.13;;
7001;SDS011;3541;53.230;10.518;2022-12-17T06:25:53;42.07;;;24.97;;
7001;SDS011;3541;53.230;10.518;2022-12-17T06:28:38;37.73;;;21.83;;
7001;SDS011;3541;53.230;10.518;2022-12-17T06:31:22;41.13;;;23.37;;
7001;SDS011;3541;53.230;10.518;2022-12-17T06:34:06;38.43;;;22.00;;
7001;SDS011;3541;53.230;10.518;2022-12-17T06:36:52;33.73;;;20.37;;
7001;SDS011;3541;53.230;10.518;2022-12-17T06:39:36;32.67;;;21.07;;
7001;SDS011;3541;53.230;10.518;2022-12-17T06:42:20;36.97;;;20.87;;
7001;SDS011;3541;53.230;10.518;2022-12-17T06:45:04;37.40;;;23.03;;
7001;SDS011;3541;53.230;10.518;2022-12-17T06:47:49;33.73;;;20.00;;
7001;SDS011;3541;53.230;10.518;2022-12-17T06:50:36;36.17;;;21.37;;
7001;SDS011;3541;53.230;10.518;2022-12-17T06:53:22;36.97;;;21.17;;
7001;SDS011;3541;53.230;10.518;2022-12-17T06:56:06;35.47;;;21.17;;
7001;SDS011;3541;53.230;10.518;2022-12-17T06:58:50;36.60;;;22.00;;
7001;SDS011;3541;53.230;10.518;2022-12-17T07:01:34;38.73;;;21.67;;
7001;SDS011;3541;53.230;10.518;2022-12-17T07:04:18;38.07;;;21.00;;
7001;SDS011;3541;53.230;10.518;2022-12-17T07:07:02;33.33;;;20.87;;
7001;SDS011;3541;53.230;10.518;2022-12-17T07:09:56;38.17;;;20.07;;
7001;SDS011;3541;53.230;10.518;2022-12-17T07:12:40;35.47;;;20.73;;
7001;SDS011;3541;53.230;10.518;2022-12-17T07:15:24;31.67;;;19.33;;
7001;SDS011;3541;53.230;10.518;2022-12-17T07:18:08;35.53;;;19.83;;
7001;SDS011;3541;53.230;10.518;2022-12-17T07:20:52;38.57;;;22.00;;
7001;SDS011;3541;53.230;10.518;2022-12-17T07:23:40;33.83;;;19.70;;
7001;SDS011;3541;53.230;10.518;2022-12-17T07:26:26;32.90;;;20.73;;
7001;SDS011;3541;53.230;10.518;2022-12-17T07:29:10;38.27;;;21.50;;
7001;SDS011;3541;53.230;10.518;2022-12-17T07:31:54;34.97;;;20.97;;
7001;SDS011;3541;53.230;10.518;2022-12-17T07:34:38;36.23;;;20.77;;
7001;SDS011;3541;53.230;10.518;2022-12-17T07:37:22;34.63;;;21.23;;
7001;SDS011;3541;53.230;10.518;2022-12-17T07:40:06;37.07;;;21.37;;
7001;SDS011;3541;53.230;10.518;2022-12-17T07:42:53;35.33;;;20.03;;
7001;SDS011;3541;53.230;10.518;2022-12-17T07:45:37;33.00;;;19.80;;
7001;SDS011;3541;53.230;10.518;2022-12-17T07:48:21;31.77;;;20.20;;
7001;SDS011;3541;53.230;10.518;2022-12-17T07:51:05;34.47;;;21.03;;
7001;SDS011;3541;53.230;10.518;2022-12-17T07:53:49;39.77;;;22.30;;
7001;SDS011;3541;53.230;10.518;2022-12-17T07:56:33;38.20;;;22.17;;
7001;SDS011;3541;53.230;10.518;2022-12-17T07:59:18;42.63;;;23.37;;
7001;SDS011;3541;53.230;10.518;2022-12-17T08:02:02;35.73;;;20.80;;
7001;SDS011;3541;53.230;10.518;2022-12-17T08:04:58;32.13;;;20.20;;
7001;SDS011;3541;53.230;10.518;2022-12-17T08:07:42;37.63;;;20.97;;
7001;SDS011;3541;53.230;10.518;2022-12-17T08:10:26;37.10;;;21.40;;
7001;SDS011;3541;53.230;10.518;2022-12-17T08:13:10;39.80;;;21.30;;
7001;SDS011;3541;53.230;10.518;2022-12-17T08:15:56;39.53;;;22.40;;
7001;SDS011;3541;53.230;10.518;2022-12-17T08:18:40;35.83;;;20.57;;
7001;SDS011;3541;53.230;10.518;2022-12-17T08:21:24;35.53;;;20.10;;
7001;SDS011;3541;53.230;10.518;2022-12-17T08:24:08;36.90;;;21.77;;
7001;SDS011;3541;53.230;10.518;2022-12-17T08:26:52;33.53;;;20.47;;
7001;SDS011;3541;53.230;10.518;2022-12-17T08:29:35;32.20;;;19.40;;
7001;SDS011;3541;53.230;10.518;2022-12-17T08:32:21;33.00;;;19.87;;
7001;SDS011;3541;53.230;10.518;2022-12-17T08:35:05;41.23;;;22.50;;
7001;SDS011;3541;53.230;10.518;2022-12-17T08:37:50;73.13;;;37.50;;
7001;SDS011;3541;53.230;10.518;2022-12-17T08:40:34;49.70;;;27.97;;
7001;SDS011;3541;53.230;10.518;2022-12-17T08:43:18;45.30;;;26.47;;
7001;SDS011;3541;53.230;10.518;2022-12-17T08:46:02;44.43;;;24.67;;
7001;SDS011;3541;53.230;10.518;2022-12-17T08:48:48;40.60;;;25.30;;
7001;SDS011;3541;53.230;10.518;2022-12-17T08:51:32;37.53;;;24.37;;
7001;SDS011;3541;53.230;10.518;2022-12-17T08:54:16;40.30;;;23.53;;
7001;SDS011;3541;53.230;10.518;2022-12-17T08:57:00;37.13;;;21.57;;
7001;SDS011;3541;53.230;10.518;2022-12-17T08:59:44;38.93;;;19.80;;
7001;SDS011;3541;53.230;10.518;2022-12-17T09:02:28;38.17;;;20.00;;
7001;SDS011;3541;53.230;10.518;2022-12-17T09:05:16;42.17;;;22.30;;
7001;SDS011;3541;53.230;10.518;2022-12-17T09:08:01;38.77;;;22.00;;
7001;SDS011;3541;53.230;10.518;2022-12-17T09:10:45;39.23;;;22.67;;
7001;SDS011;3541;53.230;10.518;2022-12-17T09:13:30;38.87;;;23.27;;
7001;SDS011;3541;53.230;10.518;2022-12-17T09:16:14;40.13;;;22.53;;
7001;SDS011;3541;53.230;10.518;2022-12-17T09:18:58;34.27;;;21.97;;
7001;SDS011;3541;53.230;10.518;2022-12-17T09:21:43;35.87;;;21.87;;
7001;SDS011;3541;53.230;10.518;2022-12-17T09:24:27;39.50;;;22.80;;
7001;SDS011;3541;53.230;10.518;2022-12-17T09:27:11;38.73;;;22.03;;
7001;SDS011;3541;53.230;10.518;2022-12-17T09:29:55;39.93;;;22.50;;
7001;SDS011;3541;53.230;10.518;2022-12-17T09:32:40;36.97;;;20.97;;
7001;SDS011;3541;53.230;10.518;2022-12-17T09:35:24;33.70;;;20.47;;
7001;SDS011;3541;53.230;10.518;2022-12-17T09:38:11;35.30;;;21.20;;
7001;SDS011;3541;53.230;10.518;2022-12-17T09:40:59;35.43;;;20.90;;
7001;SDS011;3541;53.230;10.518;2022-12-17T09:43:49;34.10;;;19.60;;
7001;SDS011;3541;53.230;10.518;2022-12-17T09:46:42;33.90;;;19.97;;
7001;SDS011;3541;53.230;10.518;2022-12-17T09:49:33;33.87;;;20.83;;
7001;SDS011;3541;53.230;10.518;2022-12-17T09:52:18;33.47;;;19.60;;
7001;SDS011;3541;53.230;10.518;2022-12-17T09:55:16;38.47;;;20.70;;
7001;SDS011;3541;53.230;10.518;2022-12-17T09:58:03;34.50;;;20.20;;
7001;SDS011;3541;53.230;10.518;2022-12-17T10:00:48;34.00;;;20.83;;
7001;SDS011;3541;53.230;10.518;2022-12-17T10:03:34;36.30;;;20.97;;
7001;SDS011;3541;53.230;10.518;2022-12-17T10:06:28;30.73;;;19.77;;
7001;SDS011;3541;53.230;10.518;2022-12-17T10:09:14;34.20;;;19.90;;
7001;SDS011;3541;53.230;10.518;2022-12-17T10:12:02;34.63;;;20.70;;
7001;SDS011;3541;53.230;10.518;2022-12-17T10:14:54;37.70;;;21.00;;
7001;SDS011;3541;53.230;10.518;2022-12-17T10:17:38;45.07;;;23.00;;
7001;SDS011;3541;53.230;10.518;2022-12-17T10:20:23;41.90;;;23.80;;
7001;SDS011;3541;53.230;10.518;2022-12-17T10:23:22;35.63;;;20.87;;
7001;SDS011;3541;53.230;10.518;2022-12-17T10:26:07;32.73;;;20.73;;
7001;SDS011;3541;53.230;10.518;2022-12-17T10:29:10;38.67;;;20.80;;
7001;SDS011;3541;53.230;10.518;2022-12-17T10:31:57;33.63;;;20.87;;
7001;SDS011;3541;53.230;10.518;2022-12-17T10:34:50;33.53;;;19.87;;
7001;SDS011;3541;53.230;10.518;2022-12-17T10:37:35;29.53;;;19.57;;
7001;SDS011;3541;53.230;10.518;2022-12-17T10:40:22;32.53;;;19.33;;
7001;SDS011;3541;53.230;10.518;2022-12-17T10:43:21;35.83;;;20.13;;
7001;SDS011;3541;53.230;10.518;2022-12-17T10:46:08;33.93;;;19.10;;
7001;SDS011;3541;53.230;10.518;2022-12-17T10:49:01;30.97;;;18.83;;
7001;SDS011;3541;53.230;10.518;2022-12-17T10:51:46;36.67;;;19.90;;
7001;SDS011;3541;53.230;10.518;2022-12-17T10:54:32;28.93;;;17.10;;
7001;SDS011;3541;53.230;10.518;2022-12-17T10:57:19;31.17;;;18.13;;
7001;SDS011;3541;53.230;10.518;2022-12-17T11:00:13;28.03;;;17.50;;
7001;SDS011;3541;53.230;10.518;2022-12-17T11:03:21;28.77;;;17.40;;
7001;SDS011;3541;53.230;10.518;2022-12-17T11:06:07;27.83;;;17.77;;
7001;SDS011;3541;53.230;10.518;2022-12-17T11:08:53;29.20;;;18.23;;
7001;SDS011;3541;53.230;10.518;2022-12-17T11:11:38;34.30;;;18.37;;
7001;SDS011;3541;53.230;10.518;2022-12-17T11:14:22;34.87;;;18.70;;
7001;SDS011;3541;53.230;10.518;2022-12-17T11:17:09;29.10;;;18.97;;
7001;SDS011;3541;53.230;10.518;2022-12-17T11:19:59;28.53;;;17.87;;
7001;SDS011;3541;53.230;10.518;2022-12-17T11:22:50;31.27;;;18.70;;
7001;SDS011;3541;53.230;10.518;2022-12-17T11:25:38;31.17;;;18.30;;
7001;SDS011;3541;53.230;10.518;2022-12-17T11:28:26;29.17;;;18.17;;
7001;SDS011;3541;53.230;10.518;2022-12-17T11:31:21;30.77;;;18.33;;
7001;SDS011;3541;53.230;10.518;2022-12-17T11:34:16;27.80;;;18.03;;
7001;SDS011;3541;53.230;10.518;2022-12-17T11:37:24;31.27;;;19.13;;
7001;SDS011;3541;53.230;10.518;2022-12-17T11:40:16;28.27;;;17.50;;
7001;SDS011;3541;53.230;10.518;2022-12-17T11:43:11;30.50;;;17.97;;
7001;SDS011;3541;53.230;10.518;2022-12-17T11:46:07;31.07;;;18.33;;
7001;SDS011;3541;53.230;10.518;2022-12-17T11:48:59;33.53;;;18.33;;
7001;SDS011;3541;53.230;10.518;2022-12-17T11:51:52;28.50;;;17.47;;
7001;SDS011;3541;53.230;10.518;2022-12-17T11:54:47;27.90;;;17.63;;
7001;SDS011;3541;53.230;10.518;2022-12-17T11:57:39;32.33;;;18.50;;
7001;SDS011;3541;53.230;10.518;2022-12-17T12:00:27;35.73;;;17.80;;
7001;SDS011;3541;53.230;10.518;2022-12-17T12:03:20;27.57;;;17.80;;
7001;SDS011;3541;53.230;10.518;2022-12-17T12:06:13;30.00;;;17.10;;
7001;SDS011;3541;53.230;10.518;2022-12-17T12:09:07;26.90;;;17.10;;
7001;SDS011;3541;53.230;10.518;2022-12-17T12:11:57;26.17;;;17.03;;
7001;SDS011;3541;53.230;10.518;2022-12-17T12:14:47;28.50;;;17.23;;
7001;SDS011;3541;53.230;10.518;2022-12-17T12:17:42;28.50;;;17.53;;
7001;SDS011;3541;53.230;10.518;2022-12-17T12:20:44;25.27;;;16.53;;
7001;SDS011;3541;53.230;10.518;2022-12-17T12:23:42;32.30;;;16.83;;
7001;SDS011;3541;53.230;10.518;2022-12-17T12:26:38;26.57;;;17.37;;
7001;SDS011;3541;53.230;10.518;2022-12-17T12:29:37;25.63;;;16.67;;
7001;SDS011;3541;53.230;10.518;2022-12-17T12:32:30;25.03;;;15.60;;
7001;SDS011;3541;53.230;10.518;2022-12-17T12:35:23;27.50;;;16.10;;
7001;SDS011;3541;53.230;10.518;2022-12-17T12:38:11;30.00;;;16.63;;
7001;SDS011;3541;53.230;10.518;2022-12-17T12:41:02;24.10;;;16.00;;
7001;SDS011;3541;53.230;10.518;2022-12-17T12:43:57;25.47;;;14.80;;
7001;SDS011;3541;53.230;10.518;2022-12-17T12:46:46;28.53;;;16.83;;
7001;SDS011;3541;53.230;10.518;2022-12-17T12:49:36;23.90;;;15.37;;
7001;SDS011;3541;53.230;10.518;2022-12-17T12:52:25;26.67;;;15.80;;
7001;SDS011;3541;53.230;10.518;2022-12-17T12:55:10;24.60;;;15.97;;
7001;SDS011;3541;53.230;10.518;2022-12-17T12:57:56;27.63;;;16.17;;
7001;SDS011;3541;53.230;10.518;2022-12-17T13:00:50;25.63;;;16.33;;
7001;SDS011;3541;53.230;10.518;2022-12-17T13:03:38;25.90;;;15.57;;
7001;SDS011;3541;53.230;10.518;2022-12-17T13:06:39;27.33;;;16.30;;
7001;SDS011;3541;53.230;10.518;2022-12-17T13:12:07;28.87;;;16.40;;
7001;SDS011;3541;53.230;10.518;2022-12-17T13:14:48;26.17;;;16.43;;
7001;SDS011;3541;53.230;10.518;2022-12-17T13:17:29;24.90;;;15.90;;
7001;SDS011;3541;53.230;10.518;2022-12-17T13:20:19;29.80;;;16.60;;
7001;SDS011;3541;53.230;10.518;2022-12-17T13:22:52;24.13;;;16.43;;
7001;SDS011;3541;53.230;10.518;2022-12-17T13:25:38;27.60;;;15.37;;
7001;SDS011;3541;53.230;10.518;2022-12-17T13:28:22;24.53;;;16.23;;
7001;SDS011;3541;53.230;10.518;2022-12-17T13:30:58;24.30;;;16.03;;
7001;SDS011;3541;53.230;10.518;2022-12-17T13:33:31;30.43;;;15.57;;
7001;SDS011;3541;53.230;10.518;2022-12-17T13:36:10;23.77;;;15.80;;
7001;SDS011;3541;53.230;10.518;2022-12-17T13:38:42;25.80;;;15.93;;
7001;SDS011;3541;53.230;10.518;2022-12-17T13:41:15;26.03;;;15.97;;
7001;SDS011;3541;53.230;10.518;2022-12-17T13:43:45;26.90;;;15.33;;
7001;SDS011;3541;53.230;10.518;2022-12-17T13:46:16;27.03;;;16.23;;
7001;SDS011;3541;53.230;10.518;2022-12-17T13:48:50;24.87;;;17.43;;
7001;SDS011;3541;53.230;10.518;2022-12-17T13:51:19;24.53;;;16.60;;
7001;SDS011;3541;53.230;10.518;2022-12-17T13:53:50;27.43;;;17.27;;
7001;SDS011;3541;53.230;10.518;2022-12-17T13:56:20;26.70;;;16.93;;
7001;SDS011;3541;53.230;10.518;2022-12-17T13:58:49;25.73;;;16.60;;
7001;SDS011;3541;53.230;10.518;2022-12-17T14:01:17;26.73;;;17.80;;
7001;SDS011;3541;53.230;10.518;2022-12-17T14:03:47;27.60;;;17.43;;
7001;SDS011;3541;53.230;10.518;2022-12-17T14:06:15;28.37;;;17.03;;
7001;SDS011;3541;53.230;10.518;2022-12-17T14:08:44;28.17;;;17.57;;
7001;SDS011;3541;53.230;10.518;2022-12-17T14:11:12;26.30;;;16.93;;
7001;SDS011;3541;53.230;10.518;2022-12-17T14:13:56;29.83;;;18.07;;
7001;SDS011;3541;53.230;10.518;2022-12-17T14:16:23;27.93;;;17.83;;
7001;SDS011;3541;53.230;10.518;2022-12-17T14:18:50;25.03;;;17.07;;
7001;SDS011;3541;53.230;10.518;2022-12-17T14:21:18;25.43;;;16.03;;
7001;SDS011;3541;53.230;10.518;2022-12-17T14:23:48;28.63;;;16.80;;
7001;SDS011;3541;53.230;10.518;2022-12-17T14:26:17;26.43;;;16.00;;
7001;SDS011;3541;53.230;10.518;2022-12-17T14:28:46;24.30;;;16.70;;
7001;SDS011;3541;53.230;10.518;2022-12-17T14:31:15;25.37;;;16.27;;
7001;SDS011;3541;53.230;10.518;2022-12-17T14:33:45;24.43;;;15.90;;
7001;SDS011;3541;53.230;10.518;2022-12-17T14:36:18;22.17;;;15.10;;
7001;SDS011;3541;53.230;10.518;2022-12-17T14:38:52;22.73;;;16.53;;
7001;SDS011;3541;53.230;10.518;2022-12-17T14:41:20;23.57;;;15.47;;
7001;SDS011;3541;53.230;10.518;2022-12-17T14:44:05;22.63;;;15.20;;
7001;SDS011;3541;53.230;10.518;2022-12-17T14:46:32;23.60;;;15.67;;
7001;SDS011;3541;53.230;10.518;2022-12-17T14:49:00;26.03;;;14.73;;
7001;SDS011;3541;53.230;10.518;2022-12-17T14:51:31;24.63;;;16.03;;
7001;SDS011;3541;53.230;10.518;2022-12-17T14:54:12;26.30;;;16.03;;
7001;SDS011;3541;53.230;10.518;2022-12-17T14:56:43;26.00;;;15.93;;
7001;SDS011;3541;53.230;10.518;2022-12-17T14:59:21;32.87;;;17.43;;
7001;SDS011;3541;53.230;10.518;2022-12-17T15:01:49;24.77;;;15.07;;
7001;SDS011;3541;53.230;10.518;2022-12-17T15:04:16;28.40;;;16.00;;
7001;SDS011;3541;53.230;10.518;2022-12-17T15:06:43;27.27;;;16.07;;
7001;SDS011;3541;53.230;10.518;2022-12-17T15:09:12;29.90;;;16.17;;
7001;SDS011;3541;53.230;10.518;2022-12-17T15:11:39;20.93;;;13.57;;
7001;SDS011;3541;53.230;10.518;2022-12-17T15:14:05;29.00;;;15.13;;
7001;SDS011;3541;53.230;10.518;2022-12-17T15:16:32;22.67;;;14.83;;
7001;SDS011;3541;53.230;10.518;2022-12-17T15:18:58;22.40;;;14.37;;
7001;SDS011;3541;53.230;10.518;2022-12-17T15:21:25;19.60;;;14.07;;
7001;SDS011;3541;53.230;10.518;2022-12-17T15:23:52;21.93;;;13.67;;
7001;SDS011;3541;53.230;10.518;2022-12-17T15:26:19;22.77;;;14.07;;
7001;SDS011;3541;53.230;10.518;2022-12-17T15:28:46;22.93;;;13.60;;
7001;SDS011;3541;53.230;10.518;2022-12-17T15:31:13;21.80;;;13.63;;
7001;SDS011;3541;53.230;10.518;2022-12-17T15:33:40;21.07;;;13.00;;
7001;SDS011;3541;53.230;10.518;2022-12-17T15:36:08;21.93;;;13.83;;
7001;SDS011;3541;53.230;10.518;2022-12-17T15:38:35;22.37;;;12.60;;
7001;SDS011;3541;53.230;10.518;2022-12-17T15:41:02;22.97;;;12.97;;
7001;SDS011;3541;53.230;10.518;2022-12-17T15:43:52;21.73;;;13.33;;
7001;SDS011;3541;53.230;10.518;2022-12-17T15:46:17;20.77;;;13.77;;
7001;SDS011;3541;53.230;10.518;2022-12-17T15:48:44;24.13;;;14.87;;
7001;SDS011;3541;53.230;10.518;2022-12-17T15:51:11;23.07;;;13.67;;
7001;SDS011;3541;53.230;10.518;2022-12-17T15:53:37;27.83;;;16.70;;
7001;SDS011;3541;53.230;10.518;2022-12-17T15:56:05;25.33;;;15.57;;
7001;SDS011;3541;53.230;10.518;2022-12-17T15:58:32;24.97;;;15.73;;
7001;SDS011;3541;53.230;10.518;2022-12-17T16:01:00;29.30;;;16.57;;
7001;SDS011;3541;53.230;10.518;2022-12-17T16:03:30;23.43;;;14.13;;
7001;SDS011;3541;53.230;10.518;2022-12-17T16:05:59;32.53;;;17.00;;
7001;SDS011;3541;53.230;10.518;2022-12-17T16:08:26;29.83;;;16.40;;
7001;SDS011;3541;53.230;10.518;2022-12-17T16:10:52;28.27;;;14.40;;
7001;SDS011;3541;53.230;10.518;2022-12-17T16:13:19;21.53;;;14.17;;